createdAt,value
2023-05-09T00:02:07.020Z,11.80
2023-05-09T00:04:35.350Z,11.75
2023-05-09T00:07:05.048Z,11.74
2023-05-09T00:09:33.074Z,11.69
2023-05-09T00:12:01.259Z,11.65
2023-05-09T00:14:29.299Z,11.64
2023-05-09T00:16:59.301Z,11.63
2023-05-09T00:19:27.259Z,11.60
2023-05-09T00:21:55.663Z,11.57
2023-05-09T00:24:25.125Z,11.53
2023-05-09T00:26:53.268Z,11.53
2023-05-09T00:29:21.271Z,11.51
2023-05-09T00:31:49.324Z,11.47
2023-05-09T00:34:17.348Z,11.43
2023-05-09T00:36:45.365Z,11.38
2023-05-09T00:39:13.478Z,11.35
2023-05-09T00:41:42.961Z,11.36
2023-05-09T00:44:10.957Z,11.33
2023-05-09T00:46:39.976Z,11.30
2023-05-09T00:49:08.227Z,11.25
2023-05-09T00:51:37.712Z,11.21
2023-05-09T00:54:08.435Z,11.20
2023-05-09T00:56:37.706Z,11.16
2023-05-09T00:59:07.465Z,11.14
2023-05-09T01:01:35.616Z,11.13
2023-05-09T01:04:04.030Z,11.14
2023-05-09T01:06:39.799Z,11.15
2023-05-09T01:09:18.252Z,11.16
2023-05-09T01:11:57.078Z,11.17
2023-05-09T01:14:34.674Z,11.16
2023-05-09T01:17:10.346Z,11.12
2023-05-09T01:19:56.713Z,11.10
2023-05-09T01:22:31.036Z,11.11
2023-05-09T01:25:30.940Z,11.11
2023-05-09T01:28:06.460Z,11.14
2023-05-09T01:30:38.928Z,11.13
2023-05-09T01:33:09.157Z,11.11
2023-05-09T01:35:39.795Z,11.09
2023-05-09T01:38:20.936Z,11.05
2023-05-09T01:40:53.080Z,10.98
2023-05-09T01:43:23.024Z,10.92
2023-05-09T01:45:54.117Z,10.83
2023-05-09T01:48:26.371Z,10.77
2023-05-09T01:50:56.089Z,10.71
2023-05-09T01:53:25.900Z,10.64
2023-05-09T01:55:55.249Z,10.56
2023-05-09T01:58:24.980Z,10.53
2023-05-09T02:00:54.812Z,10.47
2023-05-09T02:03:24.110Z,10.41
2023-05-09T02:05:53.449Z,10.39
2023-05-09T02:08:22.466Z,10.33
2023-05-09T02:10:50.847Z,10.30
2023-05-09T02:13:19.019Z,10.28
2023-05-09T02:15:48.642Z,10.35
2023-05-09T02:18:18.142Z,10.46
2023-05-09T02:20:46.596Z,10.55
2023-05-09T02:23:14.871Z,10.66
2023-05-09T02:25:43.086Z,10.66
2023-05-09T02:28:11.937Z,10.64
2023-05-09T02:30:43.283Z,10.60
2023-05-09T02:33:14.058Z,10.60
2023-05-09T02:35:46.451Z,10.59
2023-05-09T02:38:15.491Z,10.54
2023-05-09T02:40:44.836Z,10.47
2023-05-09T02:43:12.984Z,10.41
2023-05-09T02:45:41.070Z,10.35
2023-05-09T02:48:09.621Z,10.26
2023-05-09T02:50:39.680Z,10.18
2023-05-09T02:53:09.757Z,10.07
2023-05-09T02:55:37.867Z,10.00
2023-05-09T02:58:13.648Z,9.89
2023-05-09T03:00:43.113Z,9.79
2023-05-09T03:03:11.366Z,9.70
2023-05-09T03:05:39.523Z,9.64
2023-05-09T03:08:09.077Z,9.56
2023-05-09T03:10:37.120Z,9.50
2023-05-09T03:13:05.237Z,9.48
2023-05-09T03:15:33.214Z,9.48
2023-05-09T03:18:01.229Z,9.50
2023-05-09T03:20:29.304Z,9.49
2023-05-09T03:22:57.480Z,9.43
2023-05-09T03:25:27.353Z,9.42
2023-05-09T03:27:55.388Z,9.38
2023-05-09T03:30:23.420Z,9.37
2023-05-09T03:32:51.569Z,9.37
2023-05-09T03:35:19.785Z,9.40
2023-05-09T03:37:47.828Z,9.43
2023-05-09T03:40:15.813Z,9.45
2023-05-09T03:42:45.354Z,9.48
2023-05-09T03:45:13.688Z,9.59
2023-05-09T03:47:42.120Z,9.74
2023-05-09T03:50:11.319Z,9.90
2023-05-09T03:52:39.387Z,10.08
2023-05-09T03:55:08.637Z,10.26
2023-05-09T03:57:36.956Z,10.46
2023-05-09T04:00:08.168Z,10.58
2023-05-09T04:02:36.387Z,10.69
2023-05-09T04:05:04.792Z,10.85
2023-05-09T04:07:32.901Z,10.96
2023-05-09T04:10:01.429Z,11.11
2023-05-09T04:12:29.550Z,11.23
2023-05-09T04:14:57.514Z,11.30
2023-05-09T04:17:27.111Z,11.38
2023-05-09T04:19:55.148Z,11.48
2023-05-09T04:22:23.333Z,11.57
2023-05-09T04:24:51.327Z,11.62
2023-05-09T04:27:19.548Z,11.73
2023-05-09T04:29:49.323Z,11.78
2023-05-09T04:32:17.606Z,11.85
2023-05-09T04:34:47.110Z,11.93
2023-05-09T04:37:15.053Z,11.98
2023-05-09T04:39:43.428Z,12.02
2023-05-09T04:42:11.598Z,12.08
2023-05-09T04:44:39.540Z,12.18
2023-05-09T04:47:07.924Z,12.21
2023-05-09T04:49:35.890Z,12.25
2023-05-09T04:52:05.712Z,12.24
2023-05-09T04:54:33.864Z,12.40
2023-05-09T04:57:13.811Z,12.43
2023-05-09T04:59:45.741Z,12.52
2023-05-09T05:02:13.995Z,12.55
2023-05-09T05:04:42.120Z,12.57
2023-05-09T05:07:11.515Z,12.62
2023-05-09T05:09:39.702Z,12.63
2023-05-09T05:12:09.815Z,12.70
2023-05-09T05:14:38.001Z,12.75
2023-05-09T05:17:06.233Z,12.76
2023-05-09T05:19:34.178Z,12.72
2023-05-09T05:22:02.259Z,12.92
2023-05-09T05:24:31.581Z,13.02
2023-05-09T05:26:59.646Z,13.08
2023-05-09T05:29:27.692Z,13.20
2023-05-09T05:31:55.866Z,13.33
2023-05-09T05:34:23.965Z,13.38
2023-05-09T05:36:52.015Z,13.44
2023-05-09T05:39:20.127Z,13.51
2023-05-09T05:41:49.445Z,13.74
2023-05-09T05:44:17.494Z,14.11
2023-05-09T05:46:47.599Z,14.24
2023-05-09T05:49:15.812Z,14.41
2023-05-09T05:51:43.903Z,14.57
2023-05-09T05:54:11.962Z,14.71
2023-05-09T05:56:39.976Z,14.75
2023-05-09T05:59:10.756Z,14.89
2023-05-09T06:01:40.783Z,14.96
2023-05-09T06:04:09.070Z,15.03
2023-05-09T06:06:37.372Z,15.18
2023-05-09T06:09:05.780Z,15.29
2023-05-09T06:11:34.028Z,15.37
2023-05-09T06:14:02.088Z,15.47
2023-05-09T06:16:31.578Z,15.44
2023-05-09T06:18:59.663Z,15.55
2023-05-09T06:21:27.811Z,15.57
2023-05-09T06:24:05.741Z,15.48
2023-05-09T06:26:38.328Z,15.57
2023-05-09T06:29:07.714Z,15.65
2023-05-09T06:31:38.992Z,15.57
2023-05-09T06:34:07.347Z,15.59
2023-05-09T06:36:35.679Z,15.48
2023-05-09T06:39:03.855Z,15.48
2023-05-09T06:41:31.871Z,15.63
2023-05-09T06:43:59.880Z,15.69
2023-05-09T06:46:27.852Z,15.79
2023-05-09T06:48:57.331Z,15.86
2023-05-09T06:51:27.108Z,16.07
2023-05-09T06:53:55.109Z,15.94
2023-05-09T06:56:23.448Z,15.88
2023-05-09T06:58:51.882Z,15.84
2023-05-09T07:01:20.131Z,15.90
2023-05-09T07:03:48.347Z,15.96
2023-05-09T07:06:17.784Z,16.06
2023-05-09T07:08:46.001Z,16.22
2023-05-09T07:11:13.979Z,16.43
2023-05-09T07:13:42.050Z,16.45
2023-05-09T07:16:10.180Z,16.38
2023-05-09T07:18:38.271Z,16.34
2023-05-09T07:21:06.362Z,16.14
2023-05-09T07:23:35.879Z,16.08
2023-05-09T07:26:04.052Z,16.01
2023-05-09T07:28:32.113Z,15.98
2023-05-09T07:31:00.210Z,15.90
2023-05-09T07:33:28.280Z,16.03
2023-05-09T07:35:56.383Z,16.11
2023-05-09T07:38:24.415Z,16.19
2023-05-09T07:40:54.044Z,16.36
2023-05-09T07:43:22.331Z,16.55
2023-05-09T07:45:50.466Z,16.75
2023-05-09T07:48:18.599Z,17.09
2023-05-09T07:50:46.642Z,17.48
2023-05-09T07:53:14.750Z,17.60
2023-05-09T07:55:44.628Z,17.80
2023-05-09T07:58:14.143Z,17.98
2023-05-09T08:00:42.342Z,18.16
2023-05-09T08:03:10.578Z,18.43
2023-05-09T08:05:41.337Z,18.37
2023-05-09T08:08:09.273Z,18.27
2023-05-09T08:10:37.446Z,18.31
2023-05-09T08:13:05.571Z,18.32
2023-05-09T08:15:34.987Z,18.32
2023-05-09T08:18:03.110Z,18.44
2023-05-09T08:20:31.789Z,18.59
2023-05-09T08:22:59.916Z,18.58
2023-05-09T08:25:27.945Z,18.29
2023-05-09T08:27:55.935Z,18.33
2023-05-09T08:30:23.992Z,18.47
2023-05-09T08:32:53.388Z,18.45
2023-05-09T08:35:21.358Z,18.46
2023-05-09T08:37:49.361Z,18.65
2023-05-09T08:40:17.797Z,18.79
2023-05-09T08:42:46.900Z,18.66
2023-05-09T08:45:15.988Z,18.60
2023-05-09T08:47:44.411Z,18.57
2023-05-09T08:50:15.474Z,18.56
2023-05-09T08:52:44.028Z,18.68
2023-05-09T08:55:12.785Z,18.95
2023-05-09T08:57:41.681Z,19.02
2023-05-09T09:00:13.868Z,19.05
2023-05-09T09:02:43.201Z,19.13
2023-05-09T09:05:34.134Z,19.15
2023-05-09T09:08:01.871Z,19.21
2023-05-09T09:10:33.130Z,19.23
2023-05-09T09:13:04.487Z,18.92
2023-05-09T09:15:37.211Z,18.68
2023-05-09T09:18:09.999Z,18.58
2023-05-09T09:20:46.252Z,18.68
2023-05-09T09:23:19.462Z,18.74
2023-05-09T09:25:48.153Z,19.00
2023-05-09T09:28:16.516Z,19.11
2023-05-09T09:30:49.203Z,19.12
2023-05-09T09:33:21.977Z,19.01
2023-05-09T09:35:52.774Z,19.05
2023-05-09T09:38:21.257Z,19.30
2023-05-09T09:40:55.475Z,19.51
2023-05-09T09:43:29.130Z,19.65
2023-05-09T09:45:57.807Z,19.87
2023-05-09T09:48:26.962Z,20.14
2023-05-09T09:50:57.930Z,20.48
2023-05-09T09:53:30.188Z,20.52
2023-05-09T09:55:58.701Z,20.55
2023-05-09T09:58:26.779Z,20.44
2023-05-09T10:01:08.364Z,20.42
2023-05-09T10:03:37.755Z,20.61
2023-05-09T10:06:10.546Z,20.79
2023-05-09T10:08:38.493Z,20.94
2023-05-09T10:11:06.794Z,20.76
2023-05-09T10:13:37.395Z,20.54
2023-05-09T10:16:06.790Z,20.25
2023-05-09T10:18:35.688Z,20.27
2023-05-09T10:21:05.284Z,20.10
2023-05-09T10:23:39.436Z,20.13
2023-05-09T10:26:13.721Z,20.63
2023-05-09T10:28:43.303Z,21.22
2023-05-09T10:31:17.420Z,21.56
2023-05-09T10:33:50.044Z,21.71
2023-05-09T10:36:20.697Z,21.73
2023-05-09T10:38:50.956Z,21.32
2023-05-09T10:41:19.837Z,21.10
2023-05-09T10:43:48.507Z,21.09
2023-05-09T10:46:17.664Z,21.23
2023-05-09T10:48:46.716Z,21.36
2023-05-09T10:51:15.253Z,21.35
2023-05-09T10:53:45.092Z,21.34
2023-05-09T10:56:26.499Z,21.19
2023-05-09T10:58:55.180Z,21.38
2023-05-09T11:01:35.354Z,21.29
2023-05-09T11:04:11.513Z,21.32
2023-05-09T11:06:57.871Z,21.65
2023-05-09T11:09:33.019Z,22.08
2023-05-09T11:12:10.388Z,22.50
2023-05-09T11:14:44.493Z,22.79
2023-05-09T11:17:13.865Z,23.15
2023-05-09T11:20:09.788Z,23.11
2023-05-09T11:22:42.066Z,22.99
2023-05-09T11:25:11.499Z,22.93
2023-05-09T11:27:43.856Z,22.97
2023-05-09T11:30:17.361Z,22.88
2023-05-09T11:32:48.147Z,22.81
2023-05-09T11:35:18.012Z,22.80
2023-05-09T11:37:48.227Z,22.93
2023-05-09T11:40:18.494Z,23.09
2023-05-09T11:42:49.976Z,23.12
2023-05-09T11:45:18.806Z,23.03
2023-05-09T11:47:47.282Z,22.63
2023-05-09T11:50:17.319Z,22.56
2023-05-09T11:52:45.487Z,22.40
2023-05-09T11:55:15.751Z,22.24
2023-05-09T11:57:46.035Z,22.10
2023-05-09T12:00:17.260Z,21.99
2023-05-09T12:02:46.835Z,21.86
2023-05-09T12:05:16.987Z,22.08
2023-05-09T12:07:45.665Z,22.45
2023-05-09T12:10:15.683Z,22.75
2023-05-09T12:12:46.396Z,23.25
2023-05-09T12:15:17.109Z,23.48
2023-05-09T12:17:49.596Z,23.25
2023-05-09T12:20:19.328Z,23.49
2023-05-09T12:22:54.684Z,23.31
2023-05-09T12:25:23.742Z,23.23
2023-05-09T12:27:54.599Z,23.33
2023-05-09T12:30:24.153Z,23.26
2023-05-09T12:32:52.434Z,23.11
2023-05-09T12:35:23.444Z,22.91
2023-05-09T12:37:59.099Z,22.84
2023-05-09T12:40:27.239Z,22.78
2023-05-09T12:42:59.956Z,22.88
2023-05-09T12:45:32.950Z,22.89
2023-05-09T12:48:02.533Z,23.09
2023-05-09T12:50:35.913Z,23.54
2023-05-09T12:53:04.563Z,24.43
2023-05-09T12:55:32.881Z,25.14
2023-05-09T12:58:03.358Z,25.56
2023-05-09T13:00:44.488Z,26.02
2023-05-09T13:03:25.240Z,26.88
2023-05-09T13:05:57.401Z,28.29
2023-05-09T13:08:25.667Z,30.36
2023-05-09T13:11:03.999Z,31.94
2023-05-09T13:13:38.212Z,33.89
2023-05-09T13:16:10.102Z,34.67
2023-05-09T13:18:39.004Z,36.09
2023-05-09T13:21:07.317Z,38.29
2023-05-09T13:23:35.451Z,40.06
2023-05-09T13:26:03.640Z,41.63
2023-05-09T13:28:31.539Z,43.15
2023-05-09T13:31:01.238Z,44.67
2023-05-09T13:33:30.935Z,45.69
2023-05-09T13:35:58.842Z,46.45
2023-05-09T13:38:27.100Z,45.49
2023-05-09T13:40:55.133Z,42.54
2023-05-09T13:43:23.618Z,40.03
2023-05-09T13:45:51.898Z,38.03
2023-05-09T13:48:20.036Z,36.48
2023-05-09T13:50:49.545Z,34.96
2023-05-09T13:53:17.671Z,33.47
2023-05-09T13:55:46.373Z,32.51
2023-05-09T13:58:14.515Z,33.11
2023-05-09T14:00:42.839Z,35.13
2023-05-09T14:03:10.928Z,35.72
2023-05-09T14:05:39.134Z,35.53
2023-05-09T14:08:08.695Z,37.40
2023-05-09T14:10:36.831Z,39.65
2023-05-09T14:13:04.876Z,41.66
2023-05-09T14:15:32.865Z,42.90
2023-05-09T14:18:01.014Z,44.33
2023-05-09T14:20:29.207Z,44.52
2023-05-09T14:23:00.710Z,43.39
2023-05-09T14:25:30.256Z,43.62
2023-05-09T14:27:59.381Z,44.43
2023-05-09T14:30:28.225Z,45.18
2023-05-09T14:32:56.303Z,45.48
2023-05-09T14:35:24.506Z,44.25
2023-05-09T14:37:52.722Z,42.26
2023-05-09T14:40:22.036Z,39.95
2023-05-09T14:42:51.530Z,37.60
2023-05-09T14:45:19.666Z,35.59
2023-05-09T14:47:48.146Z,33.71
2023-05-09T14:50:17.031Z,32.06
2023-05-09T14:52:45.295Z,30.72
2023-05-09T14:55:13.592Z,29.57
2023-05-09T14:57:41.682Z,29.76
2023-05-09T15:00:20.372Z,31.97
2023-05-09T15:02:50.530Z,34.69
2023-05-09T15:05:18.898Z,36.96
2023-05-09T15:07:47.304Z,38.82
2023-05-09T15:10:15.603Z,40.43
2023-05-09T15:12:44.821Z,41.03
2023-05-09T15:15:19.157Z,41.86
2023-05-09T15:17:48.113Z,42.61
2023-05-09T15:20:17.611Z,43.13
2023-05-09T15:22:46.428Z,43.56
2023-05-09T15:25:14.824Z,43.93
2023-05-09T15:27:42.979Z,44.25
2023-05-09T15:30:12.047Z,44.23
2023-05-09T15:32:41.626Z,44.21
2023-05-09T15:35:10.348Z,44.10
2023-05-09T15:37:38.741Z,43.99
2023-05-09T15:40:08.413Z,43.86
2023-05-09T15:42:36.777Z,43.88
2023-05-09T15:45:05.181Z,43.89
2023-05-09T15:47:33.415Z,43.97
2023-05-09T15:50:03.227Z,44.02
2023-05-09T15:52:31.414Z,43.93
2023-05-09T15:54:59.676Z,43.78
2023-05-09T15:57:27.800Z,43.45
2023-05-09T15:59:56.097Z,42.85
2023-05-09T16:02:24.793Z,41.94
2023-05-09T16:04:53.221Z,40.17
2023-05-09T16:07:23.595Z,38.03
2023-05-09T16:09:51.743Z,36.96
2023-05-09T16:12:19.903Z,35.36
2023-05-09T16:14:47.956Z,33.57
2023-05-09T16:17:16.016Z,32.73
2023-05-09T16:19:44.168Z,33.02
2023-05-09T16:22:13.116Z,33.57
2023-05-09T16:24:42.601Z,33.82
2023-05-09T16:27:10.665Z,32.69
2023-05-09T16:29:38.711Z,31.15
2023-05-09T16:32:07.859Z,29.63
2023-05-09T16:34:36.008Z,28.25
2023-05-09T16:37:04.311Z,27.00
2023-05-09T16:39:32.398Z,25.91
2023-05-09T16:42:03.666Z,24.90
2023-05-09T16:44:31.687Z,24.01
2023-05-09T16:46:59.710Z,23.26
2023-05-09T16:49:28.449Z,22.61
2023-05-09T16:51:56.544Z,22.00
2023-05-09T16:54:24.754Z,21.50
2023-05-09T16:56:52.742Z,21.08
2023-05-09T16:59:22.128Z,20.67
2023-05-09T17:01:50.539Z,20.57
2023-05-09T17:04:18.551Z,20.74
2023-05-09T17:06:46.755Z,20.96
2023-05-09T17:09:14.830Z,21.40
2023-05-09T17:11:42.792Z,21.89
2023-05-09T17:14:12.224Z,22.02
2023-05-09T17:16:41.656Z,21.64
2023-05-09T17:19:09.872Z,21.11
2023-05-09T17:21:41.494Z,20.62
2023-05-09T17:24:10.313Z,20.14
2023-05-09T17:26:38.778Z,19.69
2023-05-09T17:29:07.161Z,19.26
2023-05-09T17:31:35.299Z,18.87
2023-05-09T17:34:05.694Z,18.48
2023-05-09T17:36:34.097Z,18.11
2023-05-09T17:39:02.282Z,17.74
2023-05-09T17:41:30.355Z,17.39
2023-05-09T17:43:58.428Z,17.06
2023-05-09T17:46:26.551Z,16.73
2023-05-09T17:48:54.693Z,16.36
2023-05-09T17:51:24.189Z,16.02
2023-05-09T17:53:53.083Z,15.74
2023-05-09T17:56:21.392Z,15.52
2023-05-09T17:58:52.933Z,15.32
2023-05-09T18:01:21.352Z,15.09
2023-05-09T18:03:49.754Z,14.89
2023-05-09T18:06:18.504Z,14.71
2023-05-09T18:08:48.402Z,14.56
2023-05-09T18:11:16.510Z,14.47
2023-05-09T18:13:44.586Z,14.34
2023-05-09T18:16:12.899Z,14.28
2023-05-09T18:18:40.948Z,14.22
2023-05-09T18:21:09.649Z,14.18
2023-05-09T18:23:37.868Z,14.10
2023-05-09T18:26:07.848Z,14.07
2023-05-09T18:28:39.457Z,14.00
2023-05-09T18:31:10.148Z,13.98
2023-05-09T18:33:39.121Z,13.88
2023-05-09T18:36:09.126Z,13.82
2023-05-09T18:38:38.542Z,13.77
2023-05-09T18:41:09.653Z,13.77
2023-05-09T18:43:39.229Z,13.81
2023-05-09T18:46:08.041Z,13.83
2023-05-09T18:48:36.342Z,13.83
2023-05-09T18:51:04.469Z,13.86
2023-05-09T18:53:32.754Z,13.88
2023-05-09T18:56:01.391Z,13.88
2023-05-09T18:58:30.943Z,13.88
2023-05-09T19:00:59.197Z,13.85
2023-05-09T19:03:27.335Z,13.83
2023-05-09T19:05:55.551Z,13.75
2023-05-09T19:08:23.639Z,13.69
2023-05-09T19:10:51.737Z,13.67
2023-05-09T19:13:19.871Z,13.61
2023-05-09T19:15:50.246Z,13.58
2023-05-09T19:18:18.260Z,13.53
2023-05-09T19:20:49.095Z,13.44
2023-05-09T19:23:17.065Z,13.43
2023-05-09T19:25:45.606Z,13.40
2023-05-09T19:28:14.677Z,13.40
2023-05-09T19:30:42.869Z,13.49
2023-05-09T19:33:12.513Z,13.48
2023-05-09T19:35:42.164Z,13.42
2023-05-09T19:38:10.947Z,13.34
2023-05-09T19:40:38.968Z,13.22
2023-05-09T19:43:07.114Z,13.12
2023-05-09T19:45:35.263Z,13.04
2023-05-09T19:48:03.430Z,12.95
2023-05-09T19:50:33.135Z,12.88
2023-05-09T19:53:05.713Z,12.83
2023-05-09T19:55:33.720Z,12.68
2023-05-09T19:58:01.657Z,12.56
2023-05-09T20:00:29.717Z,12.49
2023-05-09T20:02:57.840Z,12.46
2023-05-09T20:05:27.325Z,12.42
2023-05-09T20:07:56.712Z,12.43
2023-05-09T20:10:25.215Z,12.49
2023-05-09T20:12:54.313Z,12.67
2023-05-09T20:15:22.242Z,12.74
2023-05-09T20:17:50.243Z,12.87
2023-05-09T20:20:18.470Z,13.13
2023-05-09T20:22:46.605Z,13.33
2023-05-09T20:25:15.963Z,13.36
2023-05-09T20:27:43.971Z,13.40
2023-05-09T20:30:13.134Z,13.40
2023-05-09T20:32:41.292Z,13.38
2023-05-09T20:35:09.866Z,13.30
2023-05-09T20:37:38.514Z,13.25
2023-05-09T20:40:08.434Z,13.28
2023-05-09T20:42:38.143Z,13.27
2023-05-09T20:45:07.789Z,13.22
2023-05-09T20:47:35.857Z,13.24
2023-05-09T20:50:03.877Z,13.29
2023-05-09T20:52:31.862Z,13.48
2023-05-09T20:55:00.361Z,13.48
2023-05-09T20:57:28.673Z,13.53
2023-05-09T20:59:58.032Z,13.53
2023-05-09T21:02:26.156Z,13.54
2023-05-09T21:04:54.185Z,13.60
2023-05-09T21:07:22.254Z,13.53
2023-05-09T21:09:50.896Z,13.48
2023-05-09T21:12:18.881Z,13.52
2023-05-09T21:14:46.880Z,13.48
2023-05-09T21:17:16.244Z,13.51
2023-05-09T21:19:44.762Z,13.50
2023-05-09T21:22:12.774Z,13.39
2023-05-09T21:24:40.879Z,13.32
2023-05-09T21:27:08.864Z,13.20
2023-05-09T21:29:36.873Z,13.11
2023-05-09T21:32:04.893Z,12.99
2023-05-09T21:34:34.242Z,12.93
2023-05-09T21:37:02.205Z,13.09
2023-05-09T21:39:32.531Z,13.03
2023-05-09T21:42:01.505Z,12.95
2023-05-09T21:44:31.607Z,12.80
2023-05-09T21:46:59.689Z,12.67
2023-05-09T21:49:29.192Z,12.70
2023-05-09T21:51:58.502Z,12.63
2023-05-09T21:54:26.457Z,12.51
2023-05-09T21:56:54.434Z,12.61
2023-05-09T21:59:22.394Z,12.68
2023-05-09T22:01:50.815Z,12.72
2023-05-09T22:04:18.832Z,12.68
2023-05-09T22:06:46.801Z,12.58
2023-05-09T22:09:16.227Z,12.49
2023-05-09T22:11:44.239Z,12.42
2023-05-09T22:14:12.468Z,12.22
2023-05-09T22:16:40.607Z,12.22
2023-05-09T22:19:08.608Z,12.27
2023-05-09T22:21:36.711Z,12.23
2023-05-09T22:24:05.400Z,12.17
2023-05-09T22:26:34.997Z,12.09
2023-05-09T22:29:03.013Z,12.11
2023-05-09T22:31:31.156Z,12.07
2023-05-09T22:33:59.107Z,12.07
2023-05-09T22:36:27.200Z,12.05
2023-05-09T22:38:55.257Z,12.03
2023-05-09T22:41:23.204Z,11.91
2023-05-09T22:43:52.700Z,11.82
2023-05-09T22:46:21.702Z,11.73
2023-05-09T22:48:49.692Z,11.70
2023-05-09T22:51:17.747Z,11.62
2023-05-09T22:53:45.714Z,11.52
2023-05-09T22:56:14.006Z,11.43
2023-05-09T22:58:41.976Z,11.38
2023-05-09T23:01:11.544Z,11.31
2023-05-09T23:03:39.831Z,11.24
2023-05-09T23:06:08.141Z,11.23
2023-05-09T23:08:36.264Z,11.23
2023-05-09T23:11:05.234Z,11.16
2023-05-09T23:13:33.269Z,11.06
2023-05-09T23:16:01.832Z,10.95
2023-05-09T23:18:31.194Z,10.83
2023-05-09T23:20:59.213Z,10.75
2023-05-09T23:23:27.409Z,10.62
2023-05-09T23:25:55.571Z,10.51
2023-05-09T23:28:25.239Z,10.39
2023-05-09T23:30:56.268Z,10.24
2023-05-09T23:33:24.326Z,10.07
2023-05-09T23:35:54.980Z,9.95
2023-05-09T23:38:23.071Z,9.85
2023-05-09T23:40:51.073Z,9.77
2023-05-09T23:43:19.095Z,9.66
2023-05-09T23:45:47.146Z,9.56
2023-05-09T23:48:15.112Z,9.48
2023-05-09T23:50:43.135Z,9.38
2023-05-09T23:53:12.554Z,9.30
2023-05-09T23:55:40.674Z,9.21
2023-05-09T23:58:11.482Z,9.12
